sensor_id;sensor_type;location;lat;lon;timestamp;temperature;humidity
41668;DHT22;27356;50.920;5.350;2023-04-24T00:02:22;10.70;99.90
41668;DHT22;27356;50.920;5.350;2023-04-24T00:04:50;10.70;99.90
41668;DHT22;27356;50.920;5.350;2023-04-24T00:07:16;10.50;99.90
41668;DHT22;27356;50.920;5.350;2023-04-24T00:09:43;10.50;99.90
41668;DHT22;27356;50.920;5.350;2023-04-24T00:12:09;10.50;99.90
41668;DHT22;27356;50.920;5.350;2023-04-24T00:14:35;10.50;99.90
41668;DHT22;27356;50.920;5.350;2023-04-24T00:17:01;10.50;99.90
41668;DHT22;27356;50.920;5.350;2023-04-24T00:19:28;10.50;99.90
41668;DHT22;27356;50.920;5.350;2023-04-24T00:21:54;10.40;99.90
41668;DHT22;27356;50.920;5.350;2023-04-24T00:24:20;10.40;99.90
41668;DHT22;27356;50.920;5.350;2023-04-24T00:26:46;10.40;99.90
41668;DHT22;27356;50.920;5.350;2023-04-24T00:29:12;10.40;99.90
41668;DHT22;27356;50.920;5.350;2023-04-24T00:31:38;10.40;99.90
41668;DHT22;27356;50.920;5.350;2023-04-24T00:34:04;10.50;99.90
41668;DHT22;27356;50.920;5.350;2023-04-24T00:36:30;10.40;99.90
41668;DHT22;27356;50.920;5.350;2023-04-24T00:38:56;10.40;99.90
41668;DHT22;27356;50.920;5.350;2023-04-24T00:41:22;10.50;99.90
41668;DHT22;27356;50.920;5.350;2023-04-24T00:43:49;10.40;99.90
41668;DHT22;27356;50.920;5.350;2023-04-24T00:46:16;10.50;99.90
41668;DHT22;27356;50.920;5.350;2023-04-24T00:48:43;10.40;99.90
41668;DHT22;27356;50.920;5.350;2023-04-24T00:51:09;10.40;99.90
41668;DHT22;27356;50.920;5.350;2023-04-24T00:53:35;10.40;99.90
41668;DHT22;27356;50.920;5.350;2023-04-24T00:56:01;10.50;99.90
41668;DHT22;27356;50.920;5.350;2023-04-24T00:58:27;10.40;99.90
41668;DHT22;27356;50.920;5.350;2023-04-24T01:00:54;10.30;99.90
41668;DHT22;27356;50.920;5.350;2023-04-24T01:03:28;10.30;99.90
41668;DHT22;27356;50.920;5.350;2023-04-24T01:05:55;10.30;99.90
41668;DHT22;27356;50.920;5.350;2023-04-24T01:08:26;10.30;99.90
41668;DHT22;27356;50.920;5.350;2023-04-24T01:10:53;10.30;99.90
41668;DHT22;27356;50.920;5.350;2023-04-24T01:13:20;10.30;99.90
41668;DHT22;27356;50.920;5.350;2023-04-24T01:15:46;10.30;99.90
41668;DHT22;27356;50.920;5.350;2023-04-24T01:18:13;10.40;99.90
41668;DHT22;27356;50.920;5.350;2023-04-24T01:20:42;10.40;99.90
41668;DHT22;27356;50.920;5.350;2023-04-24T01:23:10;10.40;99.90
41668;DHT22;27356;50.920;5.350;2023-04-24T01:25:36;10.40;99.90
41668;DHT22;27356;50.920;5.350;2023-04-24T01:28:03;10.40;99.90
41668;DHT22;27356;50.920;5.350;2023-04-24T01:30:31;10.40;99.90
41668;DHT22;27356;50.920;5.350;2023-04-24T01:32:58;10.40;99.90
41668;DHT22;27356;50.920;5.350;2023-04-24T01:35:24;10.40;99.90
41668;DHT22;27356;50.920;5.350;2023-04-24T01:37:50;10.30;99.90
41668;DHT22;27356;50.920;5.350;2023-04-24T01:40:16;10.30;99.90
41668;DHT22;27356;50.920;5.350;2023-04-24T01:42:42;10.30;99.90
41668;DHT22;27356;50.920;5.350;2023-04-24T01:45:11;10.30;99.90
41668;DHT22;27356;50.920;5.350;2023-04-24T01:47:37;10.30;99.90
41668;DHT22;27356;50.920;5.350;2023-04-24T01:50:05;10.40;99.90
41668;DHT22;27356;50.920;5.350;2023-04-24T01:52:31;10.40;99.90
41668;DHT22;27356;50.920;5.350;2023-04-24T01:55:02;10.40;99.90
41668;DHT22;27356;50.920;5.350;2023-04-24T01:57:30;10.40;99.90
41668;DHT22;27356;50.920;5.350;2023-04-24T01:59:56;10.40;99.90
41668;DHT22;27356;50.920;5.350;2023-04-24T02:02:22;10.40;99.90
41668;DHT22;27356;50.920;5.350;2023-04-24T02:04:49;10.30;99.90
41668;DHT22;27356;50.920;5.350;2023-04-24T02:07:15;10.20;99.90
41668;DHT22;27356;50.920;5.350;2023-04-24T02:09:41;10.10;99.90
41668;DHT22;27356;50.920;5.350;2023-04-24T02:12:07;10.10;99.90
41668;DHT22;27356;50.920;5.350;2023-04-24T02:14:33;9.90;99.90
41668;DHT22;27356;50.920;5.350;2023-04-24T02:16:59;9.80;99.90
41668;DHT22;27356;50.920;5.350;2023-04-24T02:19:24;9.80;99.90
41668;DHT22;27356;50.920;5.350;2023-04-24T02:21:50;9.70;99.90
41668;DHT22;27356;50.920;5.350;2023-04-24T02:24:16;9.70;99.90
41668;DHT22;27356;50.920;5.350;2023-04-24T02:26:41;9.70;99.90
41668;DHT22;27356;50.920;5.350;2023-04-24T02:29:07;9.70;99.90
41668;DHT22;27356;50.920;5.350;2023-04-24T02:31:33;9.80;99.90
41668;DHT22;27356;50.920;5.350;2023-04-24T02:33:59;9.70;99.90
41668;DHT22;27356;50.920;5.350;2023-04-24T02:36:25;9.80;99.90
41668;DHT22;27356;50.920;5.350;2023-04-24T02:38:50;9.70;99.90
41668;DHT22;27356;50.920;5.350;2023-04-24T02:41:16;9.60;99.90
41668;DHT22;27356;50.920;5.350;2023-04-24T02:43:42;9.60;99.90
41668;DHT22;27356;50.920;5.350;2023-04-24T02:46:07;9.70;99.90
41668;DHT22;27356;50.920;5.350;2023-04-24T02:48:33;9.60;99.90
41668;DHT22;27356;50.920;5.350;2023-04-24T02:50:59;9.50;99.90
41668;DHT22;27356;50.920;5.350;2023-04-24T02:53:24;9.50;99.90
41668;DHT22;27356;50.920;5.350;2023-04-24T02:55:50;9.50;99.90
41668;DHT22;27356;50.920;5.350;2023-04-24T02:58:16;9.50;99.90
41668;DHT22;27356;50.920;5.350;2023-04-24T03:00:42;9.60;99.90
41668;DHT22;27356;50.920;5.350;2023-04-24T03:03:08;9.60;99.90
41668;DHT22;27356;50.920;5.350;2023-04-24T03:05:34;9.50;99.90
41668;DHT22;27356;50.920;5.350;2023-04-24T03:08:00;9.40;99.90
41668;DHT22;27356;50.920;5.350;2023-04-24T03:10:26;9.50;99.90
41668;DHT22;27356;50.920;5.350;2023-04-24T03:12:51;9.50;99.90
41668;DHT22;27356;50.920;5.350;2023-04-24T03:15:17;9.50;99.90
41668;DHT22;27356;50.920;5.350;2023-04-24T03:17:43;9.50;99.90
41668;DHT22;27356;50.920;5.350;2023-04-24T03:20:09;9.50;99.90
41668;DHT22;27356;50.920;5.350;2023-04-24T03:22:35;9.50;99.90
41668;DHT22;27356;50.920;5.350;2023-04-24T03:25:01;9.50;99.90
41668;DHT22;27356;50.920;5.350;2023-04-24T03:27:27;9.30;99.90
41668;DHT22;27356;50.920;5.350;2023-04-24T03:29:52;9.40;99.90
41668;DHT22;27356;50.920;5.350;2023-04-24T03:32:21;9.40;99.90
41668;DHT22;27356;50.920;5.350;2023-04-24T03:34:47;9.50;99.90
41668;DHT22;27356;50.920;5.350;2023-04-24T03:37:13;9.50;99.90
41668;DHT22;27356;50.920;5.350;2023-04-24T03:39:38;9.40;99.90
41668;DHT22;27356;50.920;5.350;2023-04-24T03:42:04;9.50;99.90
41668;DHT22;27356;50.920;5.350;2023-04-24T03:44:30;9.50;99.90
41668;DHT22;27356;50.920;5.350;2023-04-24T03:46:55;9.50;99.90
41668;DHT22;27356;50.920;5.350;2023-04-24T03:49:22;9.50;99.90
41668;DHT22;27356;50.920;5.350;2023-04-24T03:51:48;9.60;99.90
41668;DHT22;27356;50.920;5.350;2023-04-24T03:54:14;9.60;99.90
41668;DHT22;27356;50.920;5.350;2023-04-24T03:56:40;9.50;99.90
41668;DHT22;27356;50.920;5.350;2023-04-24T03:59:05;9.50;99.90
41668;DHT22;27356;50.920;5.350;2023-04-24T04:01:31;9.50;99.90
41668;DHT22;27356;50.920;5.350;2023-04-24T04:03:57;9.40;99.90
41668;DHT22;27356;50.920;5.350;2023-04-24T04:06:22;9.50;99.90
41668;DHT22;27356;50.920;5.350;2023-04-24T04:08:48;9.40;99.90
41668;DHT22;27356;50.920;5.350;2023-04-24T04:11:14;9.40;99.90
41668;DHT22;27356;50.920;5.350;2023-04-24T04:13:40;9.30;99.90
41668;DHT22;27356;50.920;5.350;2023-04-24T04:16:05;9.40;99.90
41668;DHT22;27356;50.920;5.350;2023-04-24T04:18:31;9.50;99.90
41668;DHT22;27356;50.920;5.350;2023-04-24T04:20:57;9.50;99.90
41668;DHT22;27356;50.920;5.350;2023-04-24T04:23:23;9.50;99.90
41668;DHT22;27356;50.920;5.350;2023-04-24T04:25:48;9.40;99.90
41668;DHT22;27356;50.920;5.350;2023-04-24T04:28:15;9.40;99.90
41668;DHT22;27356;50.920;5.350;2023-04-24T04:30:41;9.30;99.90
41668;DHT22;27356;50.920;5.350;2023-04-24T04:33:06;9.40;99.90
41668;DHT22;27356;50.920;5.350;2023-04-24T04:35:33;9.40;99.90
41668;DHT22;27356;50.920;5.350;2023-04-24T04:37:59;9.30;99.90
41668;DHT22;27356;50.920;5.350;2023-04-24T04:40:24;9.20;99.90
41668;DHT22;27356;50.920;5.350;2023-04-24T04:42:50;9.10;99.90
41668;DHT22;27356;50.920;5.350;2023-04-24T04:45:18;9.00;99.90
41668;DHT22;27356;50.920;5.350;2023-04-24T04:47:46;8.90;99.90
41668;DHT22;27356;50.920;5.350;2023-04-24T04:50:11;8.90;99.90
41668;DHT22;27356;50.920;5.350;2023-04-24T04:52:37;8.90;99.90
41668;DHT22;27356;50.920;5.350;2023-04-24T04:55:03;8.90;99.90
41668;DHT22;27356;50.920;5.350;2023-04-24T04:57:29;8.90;99.90
41668;DHT22;27356;50.920;5.350;2023-04-24T04:59:55;8.90;99.90
41668;DHT22;27356;50.920;5.350;2023-04-24T05:02:21;8.90;99.90
41668;DHT22;27356;50.920;5.350;2023-04-24T05:04:47;8.90;99.90
41668;DHT22;27356;50.920;5.350;2023-04-24T05:07:12;8.80;99.90
41668;DHT22;27356;50.920;5.350;2023-04-24T05:09:38;8.90;99.90
41668;DHT22;27356;50.920;5.350;2023-04-24T05:12:04;8.90;99.90
41668;DHT22;27356;50.920;5.350;2023-04-24T05:14:29;8.80;99.90
41668;DHT22;27356;50.920;5.350;2023-04-24T05:16:55;8.80;99.90
41668;DHT22;27356;50.920;5.350;2023-04-24T05:19:21;8.90;99.90
41668;DHT22;27356;50.920;5.350;2023-04-24T05:21:46;9.00;99.90
41668;DHT22;27356;50.920;5.350;2023-04-24T05:24:12;9.00;99.90
41668;DHT22;27356;50.920;5.350;2023-04-24T05:26:37;9.10;99.90
41668;DHT22;27356;50.920;5.350;2023-04-24T05:29:03;9.00;99.90
41668;DHT22;27356;50.920;5.350;2023-04-24T05:31:29;9.10;99.90
41668;DHT22;27356;50.920;5.350;2023-04-24T05:33:55;9.10;99.90
41668;DHT22;27356;50.920;5.350;2023-04-24T05:36:20;9.00;99.90
41668;DHT22;27356;50.920;5.350;2023-04-24T05:38:46;9.00;99.90
41668;DHT22;27356;50.920;5.350;2023-04-24T05:41:12;9.10;99.90
41668;DHT22;27356;50.920;5.350;2023-04-24T05:43:37;9.10;99.90
41668;DHT22;27356;50.920;5.350;2023-04-24T05:46:03;9.10;99.90
41668;DHT22;27356;50.920;5.350;2023-04-24T05:48:29;9.10;99.90
41668;DHT22;27356;50.920;5.350;2023-04-24T05:50:55;9.00;99.90
41668;DHT22;27356;50.920;5.350;2023-04-24T05:53:20;9.00;99.90
41668;DHT22;27356;50.920;5.350;2023-04-24T05:55:47;9.00;99.90
41668;DHT22;27356;50.920;5.350;2023-04-24T05:58:13;8.90;99.90
41668;DHT22;27356;50.920;5.350;2023-04-24T06:00:39;8.80;99.90
41668;DHT22;27356;50.920;5.350;2023-04-24T06:03:08;8.70;99.90
41668;DHT22;27356;50.920;5.350;2023-04-24T06:05:34;8.70;99.90
41668;DHT22;27356;50.920;5.350;2023-04-24T06:08:00;8.60;99.90
41668;DHT22;27356;50.920;5.350;2023-04-24T06:10:26;8.60;99.90
41668;DHT22;27356;50.920;5.350;2023-04-24T06:12:51;8.70;99.90
41668;DHT22;27356;50.920;5.350;2023-04-24T06:15:17;8.70;99.90
41668;DHT22;27356;50.920;5.350;2023-04-24T06:17:43;8.60;99.90
41668;DHT22;27356;50.920;5.350;2023-04-24T06:20:09;8.60;99.90
41668;DHT22;27356;50.920;5.350;2023-04-24T06:22:36;8.50;99.90
41668;DHT22;27356;50.920;5.350;2023-04-24T06:25:02;8.60;99.90
41668;DHT22;27356;50.920;5.350;2023-04-24T06:27:28;8.60;99.90
41668;DHT22;27356;50.920;5.350;2023-04-24T06:29:53;8.60;99.90
41668;DHT22;27356;50.920;5.350;2023-04-24T06:32:24;8.70;99.90
41668;DHT22;27356;50.920;5.350;2023-04-24T06:34:51;8.70;99.90
41668;DHT22;27356;50.920;5.350;2023-04-24T06:37:18;8.60;99.90
41668;DHT22;27356;50.920;5.350;2023-04-24T06:39:44;8.50;99.90
41668;DHT22;27356;50.920;5.350;2023-04-24T06:42:10;8.60;99.90
41668;DHT22;27356;50.920;5.350;2023-04-24T06:44:36;8.60;99.90
41668;DHT22;27356;50.920;5.350;2023-04-24T06:47:07;8.60;99.90
41668;DHT22;27356;50.920;5.350;2023-04-24T06:49:37;8.60;99.90
41668;DHT22;27356;50.920;5.350;2023-04-24T06:52:02;8.60;99.90
41668;DHT22;27356;50.920;5.350;2023-04-24T06:54:29;8.50;99.90
41668;DHT22;27356;50.920;5.350;2023-04-24T06:56:55;8.40;99.90
41668;DHT22;27356;50.920;5.350;2023-04-24T06:59:26;8.50;99.90
41668;DHT22;27356;50.920;5.350;2023-04-24T07:01:51;8.50;99.90
41668;DHT22;27356;50.920;5.350;2023-04-24T07:04:17;8.60;99.90
41668;DHT22;27356;50.920;5.350;2023-04-24T07:06:45;8.60;99.90
41668;DHT22;27356;50.920;5.350;2023-04-24T07:09:11;8.60;99.90
41668;DHT22;27356;50.920;5.350;2023-04-24T07:11:39;8.80;99.90
41668;DHT22;27356;50.920;5.350;2023-04-24T07:14:06;8.80;99.90
41668;DHT22;27356;50.920;5.350;2023-04-24T07:16:32;8.80;99.90
41668;DHT22;27356;50.920;5.350;2023-04-24T07:18:58;8.90;99.90
41668;DHT22;27356;50.920;5.350;2023-04-24T07:21:23;9.00;99.90
41668;DHT22;27356;50.920;5.350;2023-04-24T07:23:50;9.10;99.90
41668;DHT22;27356;50.920;5.350;2023-04-24T07:26:16;9.10;99.90
41668;DHT22;27356;50.920;5.350;2023-04-24T07:28:42;9.00;99.90
41668;DHT22;27356;50.920;5.350;2023-04-24T07:31:08;9.10;99.90
41668;DHT22;27356;50.920;5.350;2023-04-24T07:33:34;9.00;99.90
41668;DHT22;27356;50.920;5.350;2023-04-24T07:36:01;9.00;99.90
41668;DHT22;27356;50.920;5.350;2023-04-24T07:38:29;9.10;99.90
41668;DHT22;27356;50.920;5.350;2023-04-24T07:40:55;9.20;99.90
41668;DHT22;27356;50.920;5.350;2023-04-24T07:43:21;9.40;99.90
41668;DHT22;27356;50.920;5.350;2023-04-24T07:45:51;9.40;99.90
41668;DHT22;27356;50.920;5.350;2023-04-24T07:48:17;9.30;99.90
41668;DHT22;27356;50.920;5.350;2023-04-24T07:50:44;9.30;99.90
41668;DHT22;27356;50.920;5.350;2023-04-24T07:53:10;9.40;99.90
41668;DHT22;27356;50.920;5.350;2023-04-24T07:55:36;9.40;99.90
41668;DHT22;27356;50.920;5.350;2023-04-24T07:58:01;9.40;99.90
41668;DHT22;27356;50.920;5.350;2023-04-24T08:00:27;9.40;99.90
41668;DHT22;27356;50.920;5.350;2023-04-24T08:02:53;9.30;99.90
41668;DHT22;27356;50.920;5.350;2023-04-24T08:05:18;9.30;99.90
41668;DHT22;27356;50.920;5.350;2023-04-24T08:07:46;9.40;99.90
41668;DHT22;27356;50.920;5.350;2023-04-24T08:10:14;9.40;99.90
41668;DHT22;27356;50.920;5.350;2023-04-24T08:12:42;9.30;99.90
41668;DHT22;27356;50.920;5.350;2023-04-24T08:15:10;9.20;99.90
41668;DHT22;27356;50.920;5.350;2023-04-24T08:17:36;9.20;99.90
41668;DHT22;27356;50.920;5.350;2023-04-24T08:20:04;9.20;99.90
41668;DHT22;27356;50.920;5.350;2023-04-24T08:22:31;9.30;99.90
41668;DHT22;27356;50.920;5.350;2023-04-24T08:24:59;9.20;99.90
41668;DHT22;27356;50.920;5.350;2023-04-24T08:27:26;9.20;99.90
41668;DHT22;27356;50.920;5.350;2023-04-24T08:29:53;9.20;99.90
41668;DHT22;27356;50.920;5.350;2023-04-24T08:32:19;9.30;99.90
41668;DHT22;27356;50.920;5.350;2023-04-24T08:34:45;9.40;99.90
41668;DHT22;27356;50.920;5.350;2023-04-24T08:37:11;9.50;99.90
41668;DHT22;27356;50.920;5.350;2023-04-24T08:39:37;9.70;99.90
41668;DHT22;27356;50.920;5.350;2023-04-24T08:42:04;9.70;99.90
41668;DHT22;27356;50.920;5.350;2023-04-24T08:44:34;9.90;99.90
41668;DHT22;27356;50.920;5.350;2023-04-24T08:47:01;10.00;99.90
41668;DHT22;27356;50.920;5.350;2023-04-24T08:49:28;10.20;99.90
41668;DHT22;27356;50.920;5.350;2023-04-24T08:51:54;10.40;99.90
41668;DHT22;27356;50.920;5.350;2023-04-24T08:54:21;10.70;99.90
41668;DHT22;27356;50.920;5.350;2023-04-24T08:56:48;10.90;99.90
41668;DHT22;27356;50.920;5.350;2023-04-24T08:59:15;11.00;99.90
41668;DHT22;27356;50.920;5.350;2023-04-24T09:01:41;11.10;99.90
41668;DHT22;27356;50.920;5.350;2023-04-24T09:04:09;11.00;99.90
41668;DHT22;27356;50.920;5.350;2023-04-24T09:06:40;10.90;99.90
41668;DHT22;27356;50.920;5.350;2023-04-24T09:09:06;10.80;99.90
41668;DHT22;27356;50.920;5.350;2023-04-24T09:11:32;10.60;99.90
41668;DHT22;27356;50.920;5.350;2023-04-24T09:13:58;10.40;99.90
41668;DHT22;27356;50.920;5.350;2023-04-24T09:16:26;10.30;99.90
41668;DHT22;27356;50.920;5.350;2023-04-24T09:18:52;10.20;99.90
41668;DHT22;27356;50.920;5.350;2023-04-24T09:21:21;10.20;99.90
41668;DHT22;27356;50.920;5.350;2023-04-24T09:23:47;10.10;99.90
41668;DHT22;27356;50.920;5.350;2023-04-24T09:26:22;10.20;99.90
41668;DHT22;27356;50.920;5.350;2023-04-24T09:28:49;10.30;99.90
41668;DHT22;27356;50.920;5.350;2023-04-24T09:31:17;10.50;99.90
41668;DHT22;27356;50.920;5.350;2023-04-24T09:34:01;10.90;99.90
41668;DHT22;27356;50.920;5.350;2023-04-24T09:36:36;11.30;99.90
41668;DHT22;27356;50.920;5.350;2023-04-24T09:39:05;11.50;99.90
41668;DHT22;27356;50.920;5.350;2023-04-24T09:41:32;11.70;99.90
41668;DHT22;27356;50.920;5.350;2023-04-24T09:44:14;12.00;99.90
41668;DHT22;27356;50.920;5.350;2023-04-24T09:46:41;12.30;99.90
41668;DHT22;27356;50.920;5.350;2023-04-24T09:49:13;12.60;99.90
41668;DHT22;27356;50.920;5.350;2023-04-24T09:51:41;12.90;99.90
41668;DHT22;27356;50.920;5.350;2023-04-24T09:54:33;13.10;99.90
41668;DHT22;27356;50.920;5.350;2023-04-24T09:56:59;13.20;99.90
41668;DHT22;27356;50.920;5.350;2023-04-24T09:59:27;13.50;99.90
41668;DHT22;27356;50.920;5.350;2023-04-24T10:01:53;13.80;99.90
41668;DHT22;27356;50.920;5.350;2023-04-24T10:04:23;13.90;99.90
41668;DHT22;27356;50.920;5.350;2023-04-24T10:06:51;13.60;99.90
41668;DHT22;27356;50.920;5.350;2023-04-24T10:09:24;13.70;99.90
41668;DHT22;27356;50.920;5.350;2023-04-24T10:11:52;14.00;99.90
41668;DHT22;27356;50.920;5.350;2023-04-24T10:14:25;14.00;99.90
41668;DHT22;27356;50.920;5.350;2023-04-24T10:16:55;13.90;99.90
41668;DHT22;27356;50.920;5.350;2023-04-24T10:19:25;14.10;99.90
41668;DHT22;27356;50.920;5.350;2023-04-24T10:21:51;14.50;99.90
41668;DHT22;27356;50.920;5.350;2023-04-24T10:24:18;14.70;99.90
41668;DHT22;27356;50.920;5.350;2023-04-24T10:26:46;14.50;99.90
41668;DHT22;27356;50.920;5.350;2023-04-24T10:29:15;13.90;99.90
41668;DHT22;27356;50.920;5.350;2023-04-24T10:31:41;13.70;99.90
41668;DHT22;27356;50.920;5.350;2023-04-24T10:34:08;13.70;99.90
41668;DHT22;27356;50.920;5.350;2023-04-24T10:36:36;13.70;99.90
41668;DHT22;27356;50.920;5.350;2023-04-24T10:39:08;13.90;99.90
41668;DHT22;27356;50.920;5.350;2023-04-24T10:41:37;14.30;99.90
41668;DHT22;27356;50.920;5.350;2023-04-24T10:44:07;14.60;99.90
41668;DHT22;27356;50.920;5.350;2023-04-24T10:46:34;14.60;99.90
41668;DHT22;27356;50.920;5.350;2023-04-24T10:49:04;14.70;99.90
41668;DHT22;27356;50.920;5.350;2023-04-24T10:51:46;14.90;99.90
41668;DHT22;27356;50.920;5.350;2023-04-24T10:54:44;14.90;99.90
41668;DHT22;27356;50.920;5.350;2023-04-24T11:00:19;14.20;99.90
41668;DHT22;27356;50.920;5.350;2023-04-24T11:02:47;13.80;99.90
41668;DHT22;27356;50.920;5.350;2023-04-24T11:05:16;13.70;99.90
41668;DHT22;27356;50.920;5.350;2023-04-24T11:08:15;13.60;99.90
41668;DHT22;27356;50.920;5.350;2023-04-24T11:10:46;13.40;99.90
41668;DHT22;27356;50.920;5.350;2023-04-24T11:13:16;13.50;99.90
41668;DHT22;27356;50.920;5.350;2023-04-24T11:15:42;13.40;99.90
41668;DHT22;27356;50.920;5.350;2023-04-24T11:18:14;13.30;99.90
41668;DHT22;27356;50.920;5.350;2023-04-24T11:20:44;13.30;99.90
41668;DHT22;27356;50.920;5.350;2023-04-24T11:23:12;13.30;99.90
41668;DHT22;27356;50.920;5.350;2023-04-24T11:25:38;13.20;99.90
41668;DHT22;27356;50.920;5.350;2023-04-24T11:28:04;13.10;99.90
41668;DHT22;27356;50.920;5.350;2023-04-24T11:30:31;13.10;99.90
41668;DHT22;27356;50.920;5.350;2023-04-24T11:33:03;13.30;99.90
41668;DHT22;27356;50.920;5.350;2023-04-24T11:35:29;13.50;99.90
41668;DHT22;27356;50.920;5.350;2023-04-24T11:38:00;13.50;99.90
41668;DHT22;27356;50.920;5.350;2023-04-24T11:40:28;13.80;99.90
41668;DHT22;27356;50.920;5.350;2023-04-24T11:42:54;13.90;99.90
41668;DHT22;27356;50.920;5.350;2023-04-24T11:45:27;14.10;99.90
41668;DHT22;27356;50.920;5.350;2023-04-24T11:47:53;14.20;99.90
41668;DHT22;27356;50.920;5.350;2023-04-24T11:50:20;14.60;99.90
41668;DHT22;27356;50.920;5.350;2023-04-24T11:52:48;14.90;99.90
41668;DHT22;27356;50.920;5.350;2023-04-24T11:57:45;15.10;99.00
41668;DHT22;27356;50.920;5.350;2023-04-24T12:00:18;15.00;98.30
41668;DHT22;27356;50.920;5.350;2023-04-24T12:02:44;14.70;98.50
41668;DHT22;27356;50.920;5.350;2023-04-24T12:05:27;14.70;98.70
41668;DHT22;27356;50.920;5.350;2023-04-24T12:07:54;14.70;99.30
41668;DHT22;27356;50.920;5.350;2023-04-24T12:10:24;14.60;99.50
41668;DHT22;27356;50.920;5.350;2023-04-24T12:12:51;14.80;99.20
41668;DHT22;27356;50.920;5.350;2023-04-24T12:15:19;14.80;98.10
41668;DHT22;27356;50.920;5.350;2023-04-24T12:17:45;14.60;97.10
41668;DHT22;27356;50.920;5.350;2023-04-24T12:20:11;14.60;96.90
41668;DHT22;27356;50.920;5.350;2023-04-24T12:22:55;14.70;96.80
41668;DHT22;27356;50.920;5.350;2023-04-24T12:25:23;14.70;96.30
41668;DHT22;27356;50.920;5.350;2023-04-24T12:30:33;14.50;97.20
41668;DHT22;27356;50.920;5.350;2023-04-24T12:33:00;14.60;96.70
41668;DHT22;27356;50.920;5.350;2023-04-24T12:35:30;14.80;97.40
41668;DHT22;27356;50.920;5.350;2023-04-24T12:38:09;15.00;96.60
41668;DHT22;27356;50.920;5.350;2023-04-24T12:40:35;15.30;97.10
41668;DHT22;27356;50.920;5.350;2023-04-24T12:43:13;15.40;96.90
41668;DHT22;27356;50.920;5.350;2023-04-24T12:45:38;15.20;95.60
41668;DHT22;27356;50.920;5.350;2023-04-24T12:48:04;14.90;95.10
41668;DHT22;27356;50.920;5.350;2023-04-24T12:50:30;14.80;96.30
41668;DHT22;27356;50.920;5.350;2023-04-24T12:52:56;15.00;95.30
41668;DHT22;27356;50.920;5.350;2023-04-24T12:55:21;15.00;95.30
41668;DHT22;27356;50.920;5.350;2023-04-24T12:57:47;15.30;95.80
41668;DHT22;27356;50.920;5.350;2023-04-24T13:00:13;15.30;95.70
41668;DHT22;27356;50.920;5.350;2023-04-24T13:02:39;15.40;95.00
41668;DHT22;27356;50.920;5.350;2023-04-24T13:05:05;15.50;95.90
41668;DHT22;27356;50.920;5.350;2023-04-24T13:07:32;15.70;95.30
41668;DHT22;27356;50.920;5.350;2023-04-24T13:09:58;15.60;95.10
41668;DHT22;27356;50.920;5.350;2023-04-24T13:12:24;15.40;95.80
41668;DHT22;27356;50.920;5.350;2023-04-24T13:14:51;15.40;96.40
41668;DHT22;27356;50.920;5.350;2023-04-24T13:17:16;15.60;96.80
41668;DHT22;27356;50.920;5.350;2023-04-24T13:19:43;15.90;95.70
41668;DHT22;27356;50.920;5.350;2023-04-24T13:22:11;16.00;94.80
41668;DHT22;27356;50.920;5.350;2023-04-24T13:24:38;16.00;95.30
41668;DHT22;27356;50.920;5.350;2023-04-24T13:27:05;16.20;94.10
41668;DHT22;27356;50.920;5.350;2023-04-24T13:29:31;16.30;94.50
41668;DHT22;27356;50.920;5.350;2023-04-24T13:32:01;16.10;94.60
41668;DHT22;27356;50.920;5.350;2023-04-24T13:34:42;16.00;94.30
41668;DHT22;27356;50.920;5.350;2023-04-24T13:37:07;15.90;94.50
41668;DHT22;27356;50.920;5.350;2023-04-24T13:39:33;16.10;94.40
41668;DHT22;27356;50.920;5.350;2023-04-24T13:41:59;16.30;94.70
41668;DHT22;27356;50.920;5.350;2023-04-24T13:44:25;16.20;94.90
41668;DHT22;27356;50.920;5.350;2023-04-24T13:46:53;16.20;95.20
41668;DHT22;27356;50.920;5.350;2023-04-24T13:49:20;16.10;94.60
41668;DHT22;27356;50.920;5.350;2023-04-24T13:51:46;16.00;94.50
41668;DHT22;27356;50.920;5.350;2023-04-24T13:54:12;16.00;95.00
41668;DHT22;27356;50.920;5.350;2023-04-24T13:56:42;16.00;92.80
41668;DHT22;27356;50.920;5.350;2023-04-24T13:59:08;15.60;94.30
41668;DHT22;27356;50.920;5.350;2023-04-24T14:01:39;15.40;94.00
41668;DHT22;27356;50.920;5.350;2023-04-24T14:04:05;15.30;94.70
41668;DHT22;27356;50.920;5.350;2023-04-24T14:06:31;15.30;95.20
41668;DHT22;27356;50.920;5.350;2023-04-24T14:08:59;15.20;94.90
41668;DHT22;27356;50.920;5.350;2023-04-24T14:11:26;15.20;95.00
41668;DHT22;27356;50.920;5.350;2023-04-24T14:13:52;15.30;94.50
41668;DHT22;27356;50.920;5.350;2023-04-24T14:16:18;15.30;94.00
41668;DHT22;27356;50.920;5.350;2023-04-24T14:18:44;15.40;94.70
41668;DHT22;27356;50.920;5.350;2023-04-24T14:21:10;15.50;94.30
41668;DHT22;27356;50.920;5.350;2023-04-24T14:23:35;15.50;93.40
41668;DHT22;27356;50.920;5.350;2023-04-24T14:26:01;15.50;94.00
41668;DHT22;27356;50.920;5.350;2023-04-24T14:28:27;15.60;94.50
41668;DHT22;27356;50.920;5.350;2023-04-24T14:30:53;15.70;94.70
41668;DHT22;27356;50.920;5.350;2023-04-24T14:33:19;15.80;94.40
41668;DHT22;27356;50.920;5.350;2023-04-24T14:35:45;15.70;93.20
41668;DHT22;27356;50.920;5.350;2023-04-24T14:38:11;15.20;93.00
41668;DHT22;27356;50.920;5.350;2023-04-24T14:40:37;15.30;93.80
41668;DHT22;27356;50.920;5.350;2023-04-24T14:43:03;15.40;93.30
41668;DHT22;27356;50.920;5.350;2023-04-24T14:45:29;15.20;92.90
41668;DHT22;27356;50.920;5.350;2023-04-24T14:47:55;15.20;93.40
41668;DHT22;27356;50.920;5.350;2023-04-24T14:50:21;15.10;93.50
41668;DHT22;27356;50.920;5.350;2023-04-24T14:52:47;15.30;94.20
41668;DHT22;27356;50.920;5.350;2023-04-24T14:55:13;15.40;94.00
41668;DHT22;27356;50.920;5.350;2023-04-24T14:57:39;15.60;93.20
41668;DHT22;27356;50.920;5.350;2023-04-24T15:00:06;15.60;93.30
41668;DHT22;27356;50.920;5.350;2023-04-24T15:02:34;15.70;92.80
41668;DHT22;27356;50.920;5.350;2023-04-24T15:05:02;15.90;92.80
41668;DHT22;27356;50.920;5.350;2023-04-24T15:07:29;16.00;93.00
41668;DHT22;27356;50.920;5.350;2023-04-24T15:09:56;16.00;93.10
41668;DHT22;27356;50.920;5.350;2023-04-24T15:12:22;15.90;93.30
41668;DHT22;27356;50.920;5.350;2023-04-24T15:14:47;15.90;92.70
41668;DHT22;27356;50.920;5.350;2023-04-24T15:17:13;15.90;93.70
41668;DHT22;27356;50.920;5.350;2023-04-24T15:19:39;15.90;92.90
41668;DHT22;27356;50.920;5.350;2023-04-24T15:22:04;15.60;92.30
41668;DHT22;27356;50.920;5.350;2023-04-24T15:24:30;15.40;92.80
41668;DHT22;27356;50.920;5.350;2023-04-24T15:26:56;15.70;93.00
41668;DHT22;27356;50.920;5.350;2023-04-24T15:29:22;15.70;93.10
41668;DHT22;27356;50.920;5.350;2023-04-24T15:31:48;15.70;92.60
41668;DHT22;27356;50.920;5.350;2023-04-24T15:34:14;15.70;92.90
41668;DHT22;27356;50.920;5.350;2023-04-24T15:36:40;15.70;91.80
41668;DHT22;27356;50.920;5.350;2023-04-24T15:39:05;15.70;91.80
41668;DHT22;27356;50.920;5.350;2023-04-24T15:41:31;15.40;91.10
41668;DHT22;27356;50.920;5.350;2023-04-24T15:43:57;15.20;91.90
41668;DHT22;27356;50.920;5.350;2023-04-24T15:46:23;15.20;92.70